sensor_id;sensor_type;location;lat;lon;timestamp;P1;durP1;ratioP1;P2;durP2;ratioP2
65759;SDS011;52496;51.082;5.066;2022-12-18T00:00:16;50.25;;;22.55;;
65759;SDS011;52496;51.082;5.066;2022-12-18T00:02:47;62.38;;;26.33;;
65759;SDS011;52496;51.082;5.066;2022-12-18T00:05:18;55.65;;;24.08;;
65759;SDS011;52496;51.082;5.066;2022-12-18T00:07:48;50.67;;;22.40;;
65759;SDS011;52496;51.082;5.066;2022-12-18T00:10:19;62.72;;;26.63;;
65759;SDS011;52496;51.082;5.066;2022-12-18T00:12:49;56.45;;;23.70;;
65759;SDS011;52496;51.082;5.066;2022-12-18T00:15:20;55.38;;;24.02;;
65759;SDS011;52496;51.082;5.066;2022-12-18T00:17:50;51.53;;;22.73;;
65759;SDS011;52496;51.082;5.066;2022-12-18T00:20:21;50.67;;;21.42;;
65759;SDS011;52496;51.082;5.066;2022-12-18T00:22:55;55.40;;;25.50;;
65759;SDS011;52496;51.082;5.066;2022-12-18T00:25:26;47.67;;;22.70;;
65759;SDS011;52496;51.082;5.066;2022-12-18T00:27:56;53.33;;;22.13;;
65759;SDS011;52496;51.082;5.066;2022-12-18T00:30:27;52.25;;;25.50;;
65759;SDS011;52496;51.082;5.066;2022-12-18T00:32:58;52.35;;;22.85;;
65759;SDS011;52496;51.082;5.066;2022-12-18T00:35:28;52.58;;;21.92;;
65759;SDS011;52496;51.082;5.066;2022-12-18T00:37:59;56.35;;;21.85;;
65759;SDS011;52496;51.082;5.066;2022-12-18T00:40:30;54.65;;;22.58;;
65759;SDS011;52496;51.082;5.066;2022-12-18T00:43:00;45.53;;;21.65;;
65759;SDS011;52496;51.082;5.066;2022-12-18T00:45:32;46.53;;;21.50;;
65759;SDS011;52496;51.082;5.066;2022-12-18T00:48:02;57.58;;;21.33;;
65759;SDS011;52496;51.082;5.066;2022-12-18T00:50:33;53.35;;;22.08;;
65759;SDS011;52496;51.082;5.066;2022-12-18T00:53:04;46.28;;;20.40;;
65759;SDS011;52496;51.082;5.066;2022-12-18T00:55:34;51.42;;;20.65;;
65759;SDS011;52496;51.082;5.066;2022-12-18T00:58:05;51.15;;;20.33;;
65759;SDS011;52496;51.082;5.066;2022-12-18T01:00:35;43.15;;;21.25;;
65759;SDS011;52496;51.082;5.066;2022-12-18T01:03:06;48.60;;;22.95;;
65759;SDS011;52496;51.082;5.066;2022-12-18T01:05:39;49.60;;;22.05;;
65759;SDS011;52496;51.082;5.066;2022-12-18T01:08:10;44.67;;;23.08;;
65759;SDS011;52496;51.082;5.066;2022-12-18T01:10:41;49.28;;;20.02;;
65759;SDS011;52496;51.082;5.066;2022-12-18T01:13:11;48.20;;;23.70;;
65759;SDS011;52496;51.082;5.066;2022-12-18T01:15:48;58.75;;;23.83;;
65759;SDS011;52496;51.082;5.066;2022-12-18T01:18:20;45.38;;;20.80;;
65759;SDS011;52496;51.082;5.066;2022-12-18T01:20:50;47.03;;;20.88;;
65759;SDS011;52496;51.082;5.066;2022-12-18T01:23:21;60.60;;;23.20;;
65759;SDS011;52496;51.082;5.066;2022-12-18T01:25:51;50.13;;;20.98;;
65759;SDS011;52496;51.082;5.066;2022-12-18T01:28:22;48.25;;;20.88;;
65759;SDS011;52496;51.082;5.066;2022-12-18T01:30:52;49.85;;;21.15;;
65759;SDS011;52496;51.082;5.066;2022-12-18T01:33:23;47.75;;;20.10;;
65759;SDS011;52496;51.082;5.066;2022-12-18T01:35:53;47.60;;;22.05;;
65759;SDS011;52496;51.082;5.066;2022-12-18T01:38:24;49.20;;;20.27;;
65759;SDS011;52496;51.082;5.066;2022-12-18T01:40:58;51.00;;;20.60;;
65759;SDS011;52496;51.082;5.066;2022-12-18T01:43:42;41.67;;;18.73;;
65759;SDS011;52496;51.082;5.066;2022-12-18T01:46:27;39.67;;;20.05;;
65759;SDS011;52496;51.082;5.066;2022-12-18T01:48:59;48.03;;;19.20;;
65759;SDS011;52496;51.082;5.066;2022-12-18T01:51:31;40.95;;;20.15;;
65759;SDS011;52496;51.082;5.066;2022-12-18T01:54:02;47.97;;;20.70;;
65759;SDS011;52496;51.082;5.066;2022-12-18T01:56:32;42.35;;;18.65;;
65759;SDS011;52496;51.082;5.066;2022-12-18T01:59:04;45.30;;;19.42;;
65759;SDS011;52496;51.082;5.066;2022-12-18T02:01:37;36.90;;;18.38;;
65759;SDS011;52496;51.082;5.066;2022-12-18T02:04:24;43.63;;;20.08;;
65759;SDS011;52496;51.082;5.066;2022-12-18T02:10:00;44.92;;;19.08;;
65759;SDS011;52496;51.082;5.066;2022-12-18T02:18:21;44.40;;;19.38;;
65759;SDS011;52496;51.082;5.066;2022-12-18T02:23:47;50.28;;;21.42;;
65759;SDS011;52496;51.082;5.066;2022-12-18T02:26:38;46.75;;;19.40;;
65759;SDS011;52496;51.082;5.066;2022-12-18T02:29:16;39.70;;;18.08;;
65759;SDS011;52496;51.082;5.066;2022-12-18T02:31:53;38.28;;;18.48;;
65759;SDS011;52496;51.082;5.066;2022-12-18T02:34:28;44.13;;;19.67;;
65759;SDS011;52496;51.082;5.066;2022-12-18T02:37:01;41.20;;;18.42;;
65759;SDS011;52496;51.082;5.066;2022-12-18T02:39:36;39.15;;;19.00;;
65759;SDS011;52496;51.082;5.066;2022-12-18T02:42:10;35.55;;;17.25;;
65759;SDS011;52496;51.082;5.066;2022-12-18T02:44:43;47.05;;;18.15;;
65759;SDS011;52496;51.082;5.066;2022-12-18T02:47:16;38.75;;;17.25;;
65759;SDS011;52496;51.082;5.066;2022-12-18T02:52:42;42.15;;;17.00;;
65759;SDS011;52496;51.082;5.066;2022-12-18T02:56:03;40.20;;;17.70;;
65759;SDS011;52496;51.082;5.066;2022-12-18T03:01:58;37.75;;;17.10;;
65759;SDS011;52496;51.082;5.066;2022-12-18T03:04:39;41.35;;;16.02;;
65759;SDS011;52496;51.082;5.066;2022-12-18T03:07:18;32.95;;;17.10;;
65759;SDS011;52496;51.082;5.066;2022-12-18T03:09:55;37.25;;;16.30;;
65759;SDS011;52496;51.082;5.066;2022-12-18T03:12:30;33.38;;;15.27;;
65759;SDS011;52496;51.082;5.066;2022-12-18T03:15:14;40.58;;;17.42;;
65759;SDS011;52496;51.082;5.066;2022-12-18T03:17:57;31.95;;;16.10;;
65759;SDS011;52496;51.082;5.066;2022-12-18T03:20:34;36.97;;;15.93;;
65759;SDS011;52496;51.082;5.066;2022-12-18T03:23:09;33.10;;;14.70;;
65759;SDS011;52496;51.082;5.066;2022-12-18T03:25:43;37.30;;;17.02;;
65759;SDS011;52496;51.082;5.066;2022-12-18T03:28:17;34.28;;;14.52;;
65759;SDS011;52496;51.082;5.066;2022-12-18T03:30:52;37.75;;;16.33;;
65759;SDS011;52496;51.082;5.066;2022-12-18T03:36:39;35.13;;;16.30;;
65759;SDS011;52496;51.082;5.066;2022-12-18T03:39:10;39.35;;;17.58;;
65759;SDS011;52496;51.082;5.066;2022-12-18T03:42:25;42.30;;;16.52;;
65759;SDS011;52496;51.082;5.066;2022-12-18T03:50:41;45.53;;;17.33;;
65759;SDS011;52496;51.082;5.066;2022-12-18T03:53:36;32.25;;;14.55;;
65759;SDS011;52496;51.082;5.066;2022-12-18T03:56:29;35.78;;;13.68;;
65759;SDS011;52496;51.082;5.066;2022-12-18T03:59:03;34.17;;;16.75;;
65759;SDS011;52496;51.082;5.066;2022-12-18T04:01:37;30.02;;;14.65;;
65759;SDS011;52496;51.082;5.066;2022-12-18T04:04:10;36.00;;;16.05;;
65759;SDS011;52496;51.082;5.066;2022-12-18T04:06:44;27.83;;;14.13;;
65759;SDS011;52496;51.082;5.066;2022-12-18T04:09:17;31.45;;;14.85;;
65759;SDS011;52496;51.082;5.066;2022-12-18T04:11:49;29.95;;;14.55;;
65759;SDS011;52496;51.082;5.066;2022-12-18T04:14:21;35.45;;;15.07;;
65759;SDS011;52496;51.082;5.066;2022-12-18T04:16:52;35.38;;;14.73;;
65759;SDS011;52496;51.082;5.066;2022-12-18T04:19:22;28.45;;;15.25;;
65759;SDS011;52496;51.082;5.066;2022-12-18T04:21:53;42.53;;;14.88;;
65759;SDS011;52496;51.082;5.066;2022-12-18T04:24:23;33.63;;;13.90;;
65759;SDS011;52496;51.082;5.066;2022-12-18T04:26:54;36.85;;;15.68;;
65759;SDS011;52496;51.082;5.066;2022-12-18T04:29:24;31.45;;;14.90;;
65759;SDS011;52496;51.082;5.066;2022-12-18T04:31:55;31.58;;;14.13;;
65759;SDS011;52496;51.082;5.066;2022-12-18T04:34:26;29.30;;;14.75;;
65759;SDS011;52496;51.082;5.066;2022-12-18T04:36:56;30.08;;;14.18;;
65759;SDS011;52496;51.082;5.066;2022-12-18T04:39:27;30.83;;;13.52;;
65759;SDS011;52496;51.082;5.066;2022-12-18T04:41:57;32.15;;;14.75;;
65759;SDS011;52496;51.082;5.066;2022-12-18T04:44:28;31.48;;;14.25;;
65759;SDS011;52496;51.082;5.066;2022-12-18T04:46:58;30.08;;;14.73;;
65759;SDS011;52496;51.082;5.066;2022-12-18T04:49:29;31.85;;;14.38;;
65759;SDS011;52496;51.082;5.066;2022-12-18T04:51:59;35.22;;;15.38;;
65759;SDS011;52496;51.082;5.066;2022-12-18T04:54:30;38.05;;;13.77;;
65759;SDS011;52496;51.082;5.066;2022-12-18T04:57:01;33.00;;;13.23;;
65759;SDS011;52496;51.082;5.066;2022-12-18T04:59:31;30.27;;;14.05;;
65759;SDS011;52496;51.082;5.066;2022-12-18T05:02:02;35.40;;;15.40;;
65759;SDS011;52496;51.082;5.066;2022-12-18T05:04:32;33.60;;;13.80;;
65759;SDS011;52496;51.082;5.066;2022-12-18T05:07:03;29.55;;;14.90;;
65759;SDS011;52496;51.082;5.066;2022-12-18T05:09:33;28.38;;;13.20;;
65759;SDS011;52496;51.082;5.066;2022-12-18T05:12:04;27.27;;;12.68;;
65759;SDS011;52496;51.082;5.066;2022-12-18T05:14:35;29.35;;;14.75;;
65759;SDS011;52496;51.082;5.066;2022-12-18T05:17:05;36.00;;;15.88;;
65759;SDS011;52496;51.082;5.066;2022-12-18T05:19:36;25.60;;;12.63;;
65759;SDS011;52496;51.082;5.066;2022-12-18T05:22:06;36.15;;;14.30;;
65759;SDS011;52496;51.082;5.066;2022-12-18T05:24:38;29.13;;;13.65;;
65759;SDS011;52496;51.082;5.066;2022-12-18T05:27:08;26.48;;;11.63;;
65759;SDS011;52496;51.082;5.066;2022-12-18T05:29:39;31.20;;;13.00;;
65759;SDS011;52496;51.082;5.066;2022-12-18T05:32:09;32.22;;;13.85;;
65759;SDS011;52496;51.082;5.066;2022-12-18T05:34:39;31.40;;;13.80;;
65759;SDS011;52496;51.082;5.066;2022-12-18T05:37:10;37.08;;;16.45;;
65759;SDS011;52496;51.082;5.066;2022-12-18T05:39:40;31.38;;;15.20;;
65759;SDS011;52496;51.082;5.066;2022-12-18T05:42:12;31.70;;;14.98;;
65759;SDS011;52496;51.082;5.066;2022-12-18T05:44:43;30.23;;;13.88;;
65759;SDS011;52496;51.082;5.066;2022-12-18T05:47:14;26.48;;;13.60;;
65759;SDS011;52496;51.082;5.066;2022-12-18T05:49:44;31.00;;;14.20;;
65759;SDS011;52496;51.082;5.066;2022-12-18T05:52:15;32.38;;;14.02;;
65759;SDS011;52496;51.082;5.066;2022-12-18T05:54:46;32.30;;;14.43;;
65759;SDS011;52496;51.082;5.066;2022-12-18T05:57:16;35.17;;;14.80;;
65759;SDS011;52496;51.082;5.066;2022-12-18T05:59:47;32.65;;;14.13;;
65759;SDS011;52496;51.082;5.066;2022-12-18T06:02:18;32.50;;;14.00;;
65759;SDS011;52496;51.082;5.066;2022-12-18T06:04:50;25.98;;;14.00;;
65759;SDS011;52496;51.082;5.066;2022-12-18T06:07:21;22.83;;;13.10;;
65759;SDS011;52496;51.082;5.066;2022-12-18T06:09:51;26.17;;;12.60;;
65759;SDS011;52496;51.082;5.066;2022-12-18T06:12:22;28.02;;;13.05;;
65759;SDS011;52496;51.082;5.066;2022-12-18T06:14:53;25.88;;;12.13;;
65759;SDS011;52496;51.082;5.066;2022-12-18T06:17:27;25.25;;;13.27;;
65759;SDS011;52496;51.082;5.066;2022-12-18T06:19:59;30.70;;;14.20;;
65759;SDS011;52496;51.082;5.066;2022-12-18T06:22:32;28.17;;;13.57;;
65759;SDS011;52496;51.082;5.066;2022-12-18T06:25:04;22.30;;;10.52;;
65759;SDS011;52496;51.082;5.066;2022-12-18T06:27:35;30.08;;;12.93;;
65759;SDS011;52496;51.082;5.066;2022-12-18T06:30:06;28.48;;;12.88;;
65759;SDS011;52496;51.082;5.066;2022-12-18T06:32:37;27.15;;;12.73;;
65759;SDS011;52496;51.082;5.066;2022-12-18T06:35:08;26.08;;;12.93;;
65759;SDS011;52496;51.082;5.066;2022-12-18T06:37:38;26.27;;;12.15;;
65759;SDS011;52496;51.082;5.066;2022-12-18T06:40:09;23.50;;;11.43;;
65759;SDS011;52496;51.082;5.066;2022-12-18T06:42:40;29.25;;;12.52;;
65759;SDS011;52496;51.082;5.066;2022-12-18T06:45:11;19.90;;;10.93;;
65759;SDS011;52496;51.082;5.066;2022-12-18T06:47:41;22.65;;;11.63;;
65759;SDS011;52496;51.082;5.066;2022-12-18T06:50:12;25.48;;;13.25;;
65759;SDS011;52496;51.082;5.066;2022-12-18T06:52:43;25.70;;;11.68;;
65759;SDS011;52496;51.082;5.066;2022-12-18T06:55:14;23.63;;;12.88;;
65759;SDS011;52496;51.082;5.066;2022-12-18T06:57:44;30.77;;;12.73;;
65759;SDS011;52496;51.082;5.066;2022-12-18T07:00:15;21.42;;;12.93;;
65759;SDS011;52496;51.082;5.066;2022-12-18T07:02:46;26.77;;;12.40;;
65759;SDS011;52496;51.082;5.066;2022-12-18T07:05:16;25.15;;;11.30;;
65759;SDS011;52496;51.082;5.066;2022-12-18T07:07:47;30.02;;;12.38;;
65759;SDS011;52496;51.082;5.066;2022-12-18T07:10:17;29.17;;;12.88;;
65759;SDS011;52496;51.082;5.066;2022-12-18T07:12:48;25.17;;;10.65;;
65759;SDS011;52496;51.082;5.066;2022-12-18T07:15:19;27.55;;;12.90;;
65759;SDS011;52496;51.082;5.066;2022-12-18T07:17:49;27.55;;;11.95;;
65759;SDS011;52496;51.082;5.066;2022-12-18T07:20:20;25.65;;;12.90;;
65759;SDS011;52496;51.082;5.066;2022-12-18T07:22:50;28.05;;;13.77;;
65759;SDS011;52496;51.082;5.066;2022-12-18T07:25:21;29.02;;;14.30;;
65759;SDS011;52496;51.082;5.066;2022-12-18T07:27:51;24.00;;;12.85;;
65759;SDS011;52496;51.082;5.066;2022-12-18T07:30:22;26.15;;;13.30;;
65759;SDS011;52496;51.082;5.066;2022-12-18T07:32:52;31.38;;;13.77;;
65759;SDS011;52496;51.082;5.066;2022-12-18T07:35:23;25.67;;;14.27;;
65759;SDS011;52496;51.082;5.066;2022-12-18T07:37:54;29.02;;;12.35;;
65759;SDS011;52496;51.082;5.066;2022-12-18T07:40:25;26.65;;;12.32;;
65759;SDS011;52496;51.082;5.066;2022-12-18T07:42:55;25.60;;;12.25;;
65759;SDS011;52496;51.082;5.066;2022-12-18T07:45:26;25.80;;;13.75;;
65759;SDS011;52496;51.082;5.066;2022-12-18T07:47:56;26.00;;;12.07;;
65759;SDS011;52496;51.082;5.066;2022-12-18T07:50:27;24.73;;;12.63;;
65759;SDS011;52496;51.082;5.066;2022-12-18T07:52:57;29.08;;;12.35;;
65759;SDS011;52496;51.082;5.066;2022-12-18T07:55:28;26.20;;;12.13;;
65759;SDS011;52496;51.082;5.066;2022-12-18T07:58:03;27.50;;;11.88;;
65759;SDS011;52496;51.082;5.066;2022-12-18T08:00:34;24.10;;;12.73;;
65759;SDS011;52496;51.082;5.066;2022-12-18T08:03:05;24.08;;;11.63;;
65759;SDS011;52496;51.082;5.066;2022-12-18T08:05:36;19.15;;;12.30;;
65759;SDS011;52496;51.082;5.066;2022-12-18T08:08:06;25.98;;;13.07;;
65759;SDS011;52496;51.082;5.066;2022-12-18T08:10:37;22.73;;;9.93;;
65759;SDS011;52496;51.082;5.066;2022-12-18T08:13:12;21.60;;;11.55;;
65759;SDS011;52496;51.082;5.066;2022-12-18T08:15:42;22.30;;;11.70;;
65759;SDS011;52496;51.082;5.066;2022-12-18T08:18:13;17.83;;;10.82;;
65759;SDS011;52496;51.082;5.066;2022-12-18T08:20:44;21.42;;;10.70;;
65759;SDS011;52496;51.082;5.066;2022-12-18T08:23:14;20.70;;;10.52;;
65759;SDS011;52496;51.082;5.066;2022-12-18T08:25:45;26.42;;;12.13;;
65759;SDS011;52496;51.082;5.066;2022-12-18T08:28:16;26.55;;;13.38;;
65759;SDS011;52496;51.082;5.066;2022-12-18T08:30:50;22.98;;;11.55;;
65759;SDS011;52496;51.082;5.066;2022-12-18T08:33:22;23.63;;;12.13;;
65759;SDS011;52496;51.082;5.066;2022-12-18T08:35:53;27.63;;;13.05;;
65759;SDS011;52496;51.082;5.066;2022-12-18T08:38:24;19.20;;;11.48;;
65759;SDS011;52496;51.082;5.066;2022-12-18T08:40:59;21.73;;;11.80;;
65759;SDS011;52496;51.082;5.066;2022-12-18T08:43:33;24.48;;;11.93;;
65759;SDS011;52496;51.082;5.066;2022-12-18T08:46:23;23.80;;;11.13;;
65759;SDS011;52496;51.082;5.066;2022-12-18T08:48:55;27.98;;;12.27;;
65759;SDS011;52496;51.082;5.066;2022-12-18T08:51:26;28.23;;;12.75;;
65759;SDS011;52496;51.082;5.066;2022-12-18T08:53:57;30.77;;;12.60;;
65759;SDS011;52496;51.082;5.066;2022-12-18T08:56:32;26.30;;;13.15;;
65759;SDS011;52496;51.082;5.066;2022-12-18T08:59:03;32.15;;;14.88;;
65759;SDS011;52496;51.082;5.066;2022-12-18T09:01:36;31.17;;;14.40;;
65759;SDS011;52496;51.082;5.066;2022-12-18T09:04:07;34.72;;;15.48;;
65759;SDS011;52496;51.082;5.066;2022-12-18T09:06:39;38.10;;;15.20;;
65759;SDS011;52496;51.082;5.066;2022-12-18T09:09:10;38.47;;;16.40;;
65759;SDS011;52496;51.082;5.066;2022-12-18T09:11:41;31.35;;;14.25;;
65759;SDS011;52496;51.082;5.066;2022-12-18T09:14:11;24.70;;;11.52;;
65759;SDS011;52496;51.082;5.066;2022-12-18T09:16:42;27.77;;;12.45;;
65759;SDS011;52496;51.082;5.066;2022-12-18T09:19:12;23.25;;;12.68;;
65759;SDS011;52496;51.082;5.066;2022-12-18T09:21:43;23.67;;;12.25;;
65759;SDS011;52496;51.082;5.066;2022-12-18T09:24:14;25.13;;;12.63;;
65759;SDS011;52496;51.082;5.066;2022-12-18T09:26:45;23.98;;;11.68;;
65759;SDS011;52496;51.082;5.066;2022-12-18T09:29:15;26.48;;;12.93;;
65759;SDS011;52496;51.082;5.066;2022-12-18T09:31:46;19.38;;;11.20;;
65759;SDS011;52496;51.082;5.066;2022-12-18T09:34:17;20.65;;;12.75;;
65759;SDS011;52496;51.082;5.066;2022-12-18T09:36:48;25.15;;;11.85;;
65759;SDS011;52496;51.082;5.066;2022-12-18T09:39:18;24.20;;;12.63;;
65759;SDS011;52496;51.082;5.066;2022-12-18T09:41:53;23.02;;;13.32;;
65759;SDS011;52496;51.082;5.066;2022-12-18T09:44:40;27.55;;;13.60;;
65759;SDS011;52496;51.082;5.066;2022-12-18T09:47:27;23.95;;;12.95;;
65759;SDS011;52496;51.082;5.066;2022-12-18T09:50:03;26.88;;;13.90;;
65759;SDS011;52496;51.082;5.066;2022-12-18T09:52:46;25.90;;;14.13;;
65759;SDS011;52496;51.082;5.066;2022-12-18T09:55:30;27.25;;;13.90;;
65759;SDS011;52496;51.082;5.066;2022-12-18T09:58:06;23.85;;;13.15;;
65759;SDS011;52496;51.082;5.066;2022-12-18T10:00:40;26.73;;;13.23;;
65759;SDS011;52496;51.082;5.066;2022-12-18T10:03:12;24.63;;;12.43;;
65759;SDS011;52496;51.082;5.066;2022-12-18T10:09:05;32.58;;;17.30;;
65759;SDS011;52496;51.082;5.066;2022-12-18T10:11:48;30.83;;;16.33;;
65759;SDS011;52496;51.082;5.066;2022-12-18T10:14:47;59.60;;;26.80;;
65759;SDS011;52496;51.082;5.066;2022-12-18T10:25:33;29.92;;;17.23;;
65759;SDS011;52496;51.082;5.066;2022-12-18T10:28:10;27.50;;;15.88;;
65759;SDS011;52496;51.082;5.066;2022-12-18T10:30:43;28.65;;;17.20;;
65759;SDS011;52496;51.082;5.066;2022-12-18T10:33:18;23.63;;;14.30;;
65759;SDS011;52496;51.082;5.066;2022-12-18T10:35:52;26.05;;;15.13;;
65759;SDS011;52496;51.082;5.066;2022-12-18T10:38:26;30.48;;;18.83;;
65759;SDS011;52496;51.082;5.066;2022-12-18T10:41:02;26.88;;;15.27;;
65759;SDS011;52496;51.082;5.066;2022-12-18T10:46:51;32.10;;;14.85;;
65759;SDS011;52496;51.082;5.066;2022-12-18T10:49:26;27.45;;;16.90;;
65759;SDS011;52496;51.082;5.066;2022-12-18T10:54:49;27.35;;;13.27;;
65759;SDS011;52496;51.082;5.066;2022-12-18T10:57:32;23.80;;;12.30;;
65759;SDS011;52496;51.082;5.066;2022-12-18T11:00:21;24.83;;;14.18;;
65759;SDS011;52496;51.082;5.066;2022-12-18T11:02:55;24.52;;;12.45;;
65759;SDS011;52496;51.082;5.066;2022-12-18T11:05:30;24.73;;;14.15;;
65759;SDS011;52496;51.082;5.066;2022-12-18T11:08:07;26.40;;;14.27;;
65759;SDS011;52496;51.082;5.066;2022-12-18T11:10:51;29.45;;;14.23;;
65759;SDS011;52496;51.082;5.066;2022-12-18T11:13:23;23.83;;;12.98;;
65759;SDS011;52496;51.082;5.066;2022-12-18T11:15:56;23.55;;;12.90;;
65759;SDS011;52496;51.082;5.066;2022-12-18T11:20:59;26.23;;;13.48;;
65759;SDS011;52496;51.082;5.066;2022-12-18T11:23:33;26.08;;;13.73;;
65759;SDS011;52496;51.082;5.066;2022-12-18T11:26:05;23.73;;;12.57;;
65759;SDS011;52496;51.082;5.066;2022-12-18T11:28:44;27.88;;;13.90;;
65759;SDS011;52496;51.082;5.066;2022-12-18T11:31:26;24.70;;;14.65;;
65759;SDS011;52496;51.082;5.066;2022-12-18T11:34:06;23.58;;;13.90;;
65759;SDS011;52496;51.082;5.066;2022-12-18T11:36:43;23.45;;;13.90;;
65759;SDS011;52496;51.082;5.066;2022-12-18T11:39:20;26.08;;;13.90;;
65759;SDS011;52496;51.082;5.066;2022-12-18T11:41:57;28.83;;;16.15;;
65759;SDS011;52496;51.082;5.066;2022-12-18T11:53:23;28.35;;;15.35;;
65759;SDS011;52496;51.082;5.066;2022-12-18T12:03:50;23.95;;;13.38;;
65759;SDS011;52496;51.082;5.066;2022-12-18T12:06:51;27.25;;;14.30;;
65759;SDS011;52496;51.082;5.066;2022-12-18T12:12:20;23.70;;;13.98;;
65759;SDS011;52496;51.082;5.066;2022-12-18T12:15:34;26.25;;;14.48;;
65759;SDS011;52496;51.082;5.066;2022-12-18T12:35:47;22.10;;;12.85;;
65759;SDS011;52496;51.082;5.066;2022-12-18T12:38:37;30.00;;;14.43;;
65759;SDS011;52496;51.082;5.066;2022-12-18T12:41:13;24.15;;;13.18;;
65759;SDS011;52496;51.082;5.066;2022-12-18T12:44:06;25.45;;;14.20;;
65759;SDS011;52496;51.082;5.066;2022-12-18T12:46:43;26.92;;;15.52;;
65759;SDS011;52496;51.082;5.066;2022-12-18T12:49:15;33.88;;;19.52;;
65759;SDS011;52496;51.082;5.066;2022-12-18T12:52:05;34.28;;;20.17;;
65759;SDS011;52496;51.082;5.066;2022-12-18T12:54:41;31.63;;;18.70;;
65759;SDS011;52496;51.082;5.066;2022-12-18T13:02:34;28.13;;;15.93;;
65759;SDS011;52496;51.082;5.066;2022-12-18T13:08:09;28.23;;;14.63;;
65759;SDS011;52496;51.082;5.066;2022-12-18T13:10:41;25.20;;;14.68;;
65759;SDS011;52496;51.082;5.066;2022-12-18T13:13:13;31.60;;;15.73;;
65759;SDS011;52496;51.082;5.066;2022-12-18T13:15:46;30.15;;;17.00;;
65759;SDS011;52496;51.082;5.066;2022-12-18T13:23:33;29.33;;;16.10;;
65759;SDS011;52496;51.082;5.066;2022-12-18T13:36:53;60.58;;;35.88;;
65759;SDS011;52496;51.082;5.066;2022-12-18T13:39:31;81.47;;;49.25;;
65759;SDS011;52496;51.082;5.066;2022-12-18T13:44:38;38.53;;;24.80;;
65759;SDS011;52496;51.082;5.066;2022-12-18T13:50:10;29.05;;;16.85;;
65759;SDS011;52496;51.082;5.066;2022-12-18T13:52:52;26.90;;;17.35;;
65759;SDS011;52496;51.082;5.066;2022-12-18T13:55:23;27.52;;;17.45;;
65759;SDS011;52496;51.082;5.066;2022-12-18T13:58:03;27.60;;;16.35;;
65759;SDS011;52496;51.082;5.066;2022-12-18T14:00:35;30.63;;;16.27;;
65759;SDS011;52496;51.082;5.066;2022-12-18T14:03:21;29.45;;;15.73;;
65759;SDS011;52496;51.082;5.066;2022-12-18T14:05:55;32.38;;;17.55;;
65759;SDS011;52496;51.082;5.066;2022-12-18T14:08:32;30.27;;;15.73;;
65759;SDS011;52496;51.082;5.066;2022-12-18T14:11:06;27.35;;;16.60;;
65759;SDS011;52496;51.082;5.066;2022-12-18T14:13:47;25.90;;;15.32;;
65759;SDS011;52496;51.082;5.066;2022-12-18T14:16:18;29.75;;;16.75;;
65759;SDS011;52496;51.082;5.066;2022-12-18T14:18:52;35.08;;;17.38;;
65759;SDS011;52496;51.082;5.066;2022-12-18T14:21:27;32.53;;;18.38;;
65759;SDS011;52496;51.082;5.066;2022-12-18T14:24:03;31.48;;;16.73;;
65759;SDS011;52496;51.082;5.066;2022-12-18T14:26:36;28.60;;;16.58;;
65759;SDS011;52496;51.082;5.066;2022-12-18T14:32:06;30.83;;;16.73;;
65759;SDS011;52496;51.082;5.066;2022-12-18T14:34:36;26.00;;;16.02;;
65759;SDS011;52496;51.082;5.066;2022-12-18T14:37:11;30.67;;;18.17;;
65759;SDS011;52496;51.082;5.066;2022-12-18T14:39:53;30.52;;;16.85;;
65759;SDS011;52496;51.082;5.066;2022-12-18T14:42:28;32.63;;;17.90;;
65759;SDS011;52496;51.082;5.066;2022-12-18T14:48:07;28.95;;;17.05;;
65759;SDS011;52496;51.082;5.066;2022-12-18T14:50:42;33.30;;;17.63;;
65759;SDS011;52496;51.082;5.066;2022-12-18T14:53:20;32.70;;;16.02;;
65759;SDS011;52496;51.082;5.066;2022-12-18T14:56:02;31.63;;;18.05;;
65759;SDS011;52496;51.082;5.066;2022-12-18T14:58:34;30.90;;;17.20;;
65759;SDS011;52496;51.082;5.066;2022-12-18T15:01:05;34.17;;;18.50;;
65759;SDS011;52496;51.082;5.066;2022-12-18T15:03:42;31.90;;;17.95;;
65759;SDS011;52496;51.082;5.066;2022-12-18T15:06:30;34.33;;;17.83;;
65759;SDS011;52496;51.082;5.066;2022-12-18T15:09:24;34.20;;;17.63;;
65759;SDS011;52496;51.082;5.066;2022-12-18T15:14:48;32.90;;;17.70;;
65759;SDS011;52496;51.082;5.066;2022-12-18T15:17:20;38.40;;;18.50;;
65759;SDS011;52496;51.082;5.066;2022-12-18T15:20:02;34.50;;;18.35;;
65759;SDS011;52496;51.082;5.066;2022-12-18T15:22:39;38.55;;;18.17;;
65759;SDS011;52496;51.082;5.066;2022-12-18T15:27:59;42.80;;;22.60;;
65759;SDS011;52496;51.082;5.066;2022-12-18T15:30:30;39.50;;;21.10;;
65759;SDS011;52496;51.082;5.066;2022-12-18T15:33:22;44.67;;;20.55;;
65759;SDS011;52496;51.082;5.066;2022-12-18T15:35:58;42.97;;;21.25;;
65759;SDS011;52496;51.082;5.066;2022-12-18T15:38:31;45.17;;;21.92;;
65759;SDS011;52496;51.082;5.066;2022-12-18T15:41:02;42.88;;;22.95;;
65759;SDS011;52496;51.082;5.066;2022-12-18T15:43:33;40.05;;;21.23;;
65759;SDS011;52496;51.082;5.066;2022-12-18T15:48:42;44.30;;;20.13;;
65759;SDS011;52496;51.082;5.066;2022-12-18T15:53:46;37.17;;;20.02;;
65759;SDS011;52496;51.082;5.066;2022-12-18T15:56:18;36.55;;;18.60;;
65759;SDS011;52496;51.082;5.066;2022-12-18T15:59:12;38.03;;;17.67;;
65759;SDS011;52496;51.082;5.066;2022-12-18T16:01:45;34.42;;;20.60;;
65759;SDS011;52496;51.082;5.066;2022-12-18T16:04:19;46.83;;;26.75;;
65759;SDS011;52496;51.082;5.066;2022-12-18T16:06:51;46.60;;;28.20;;
65759;SDS011;52496;51.082;5.066;2022-12-18T16:09:21;42.72;;;25.40;;
65759;SDS011;52496;51.082;5.066;2022-12-18T16:11:52;48.95;;;30.38;;
65759;SDS011;52496;51.082;5.066;2022-12-18T16:14:24;55.72;;;38.08;;
65759;SDS011;52496;51.082;5.066;2022-12-18T16:17:05;63.58;;;40.38;;
65759;SDS011;52496;51.082;5.066;2022-12-18T16:19:39;63.25;;;39.55;;
65759;SDS011;52496;51.082;5.066;2022-12-18T16:22:18;44.17;;;30.05;;
65759;SDS011;52496;51.082;5.066;2022-12-18T16:24:56;61.90;;;39.15;;
65759;SDS011;52496;51.082;5.066;2022-12-18T16:27:27;54.50;;;34.33;;
65759;SDS011;52496;51.082;5.066;2022-12-18T16:29:58;53.97;;;30.40;;
65759;SDS011;52496;51.082;5.066;2022-12-18T16:32:29;58.72;;;35.95;;
65759;SDS011;52496;51.082;5.066;2022-12-18T16:34:59;56.42;;;36.15;;
65759;SDS011;52496;51.082;5.066;2022-12-18T16:37:31;58.47;;;37.38;;
65759;SDS011;52496;51.082;5.066;2022-12-18T16:40:02;57.60;;;35.38;;
65759;SDS011;52496;51.082;5.066;2022-12-18T16:42:33;59.40;;;35.78;;
65759;SDS011;52496;51.082;5.066;2022-12-18T16:45:04;61.20;;;36.60;;
65759;SDS011;52496;51.082;5.066;2022-12-18T16:47:36;62.45;;;36.70;;
65759;SDS011;52496;51.082;5.066;2022-12-18T16:50:07;55.22;;;31.80;;
65759;SDS011;52496;51.082;5.066;2022-12-18T16:52:39;45.67;;;24.75;;
65759;SDS011;52496;51.082;5.066;2022-12-18T16:55:10;39.88;;;23.52;;
65759;SDS011;52496;51.082;5.066;2022-12-18T16:57:41;35.70;;;18.48;;
65759;SDS011;52496;51.082;5.066;2022-12-18T17:00:12;40.05;;;18.98;;
65759;SDS011;52496;51.082;5.066;2022-12-18T17:02:43;32.88;;;16.50;;
65759;SDS011;52496;51.082;5.066;2022-12-18T17:05:13;33.90;;;16.63;;
65759;SDS011;52496;51.082;5.066;2022-12-18T17:07:44;34.03;;;15.77;;
65759;SDS011;52496;51.082;5.066;2022-12-18T17:10:15;31.95;;;16.35;;